Time;durP1;ratioP1;P1;durP2;ratioP2;P2;SDS_P1;SDS_P2;PMS_P1;PMS_P2;Temp;Humidity;BMP_temperature;BMP_pressure;BME280_temperature;BME280_humidity;BME280_pressure;Samples;Min_cycle;Max_cycle;Signal;HPM_P1;HPM_P2
2020/12/11 00:01:01;;;;;;;29.47;12.80;;;;;;;;;;5051585;28;20234;-74
2020/12/11 00:04:12;;;;;;;31.37;13.67;;;;;;;;;;5046609;28;20613;-74
2020/12/11 00:07:24;;;;;;;30.47;12.63;;;;;;;;;;5055400;28;20271;-75
2020/12/11 00:10:34;;;;;;;29.13;12.87;;;;;;;;;;5052145;28;20258;-74
2020/12/11 00:13:46;;;;;;;28.13;12.47;;;;;;;;;;5051388;28;20255;-75
2020/12/11 00:16:57;;;;;;;27.73;12.37;;;;;;;;;;5053286;28;20752;-75
2020/12/11 00:20:08;;;;;;;29.93;12.63;;;;;;;;;;5051868;28;20269;-75
2020/12/11 00:23:23;;;;;;;27.33;12.17;;;;;;;;;;5039810;28;20240;-75
2020/12/11 00:26:34;;;;;;;29.23;12.27;;;;;;;;;;5052102;28;20207;-76
2020/12/11 00:29:48;;;;;;;27.80;12.40;;;;;;;;;;5044290;28;20246;-75
2020/12/11 00:33:00;;;;;;;26.57;11.57;;;;;;;;;;5051773;28;20658;-76
2020/12/11 00:36:13;;;;;;;22.83;11.10;;;;;;;;;;5052457;28;20238;-75
2020/12/11 00:39:25;;;;;;;25.40;11.60;;;;;;;;;;5046113;28;20239;-75
2020/12/11 00:42:36;;;;;;;24.17;11.80;;;;;;;;;;5050561;28;20215;-75
2020/12/11 00:45:47;;;;;;;25.43;11.70;;;;;;;;;;5046571;28;20206;-75
2020/12/11 00:48:58;;;;;;;26.23;11.40;;;;;;;;;;5047803;28;20275;-75
2020/12/11 00:52:09;;;;;;;25.37;11.50;;;;;;;;;;5048358;28;20621;-75
2020/12/11 00:55:25;;;;;;;23.90;11.90;;;;;;;;;;5051607;28;20276;-75
2020/12/11 00:58:36;;;;;;;26.90;11.93;;;;;;;;;;5052132;28;20214;-75
2020/12/11 01:01:48;;;;;;;25.60;11.57;;;;;;;;;;5051175;28;20211;-74
2020/12/11 01:04:59;;;;;;;24.10;11.87;;;;;;;;;;5050588;28;20248;-74
2020/12/11 01:08:09;;;;;;;23.63;11.33;;;;;;;;;;5057375;28;20678;-74
2020/12/11 01:11:22;;;;;;;25.57;11.27;;;;;;;;;;5050762;28;20238;-74
2020/12/11 01:14:33;;;;;;;28.00;12.30;;;;;;;;;;5044948;28;20281;-75
2020/12/11 01:17:44;;;;;;;25.23;11.40;;;;;;;;;;5051114;28;20545;-75
2020/12/11 01:20:55;;;;;;;24.87;11.63;;;;;;;;;;5051171;28;20232;-74
2020/12/11 01:24:06;;;;;;;26.27;11.10;;;;;;;;;;5053558;28;20235;-76
2020/12/11 01:27:17;;;;;;;25.27;11.17;;;;;;;;;;5049594;28;20631;-76
2020/12/11 01:30:29;;;;;;;24.37;11.43;;;;;;;;;;5050841;28;20569;-75
2020/12/11 01:33:40;;;;;;;24.77;12.53;;;;;;;;;;5052431;28;20257;-75
2020/12/11 01:36:51;;;;;;;23.07;10.60;;;;;;;;;;5056973;28;20199;-75
2020/12/11 01:40:02;;;;;;;26.03;11.63;;;;;;;;;;5056308;28;20211;-75
2020/12/11 01:43:14;;;;;;;27.27;12.03;;;;;;;;;;5054022;28;20226;-75
2020/12/11 01:46:28;;;;;;;27.17;11.63;;;;;;;;;;5056571;28;20359;-74
2020/12/11 01:49:39;;;;;;;27.83;11.90;;;;;;;;;;5073567;28;20214;-74
2020/12/11 01:52:51;;;;;;;21.33;11.27;;;;;;;;;;5076715;28;20226;-73
2020/12/11 01:56:03;;;;;;;23.77;11.10;;;;;;;;;;5057207;28;20207;-74
2020/12/11 01:59:19;;;;;;;25.30;12.03;;;;;;;;;;5060129;28;20215;-75
2020/12/11 02:02:33;;;;;;;24.23;11.40;;;;;;;;;;5061066;28;20211;-75
2020/12/11 02:05:45;;;;;;;28.63;12.60;;;;;;;;;;5057107;28;20214;-76
2020/12/11 02:08:56;;;;;;;28.40;12.37;;;;;;;;;;5053823;28;20353;-75
2020/12/11 02:12:08;;;;;;;32.37;13.10;;;;;;;;;;5054509;28;20211;-74
2020/12/11 02:15:20;;;;;;;25.73;11.07;;;;;;;;;;5053889;28;20257;-75
2020/12/11 02:18:31;;;;;;;26.33;11.63;;;;;;;;;;5047273;28;20214;-73
2020/12/11 02:21:42;;;;;;;28.37;11.93;;;;;;;;;;5048488;28;20285;-75
2020/12/11 02:24:54;;;;;;;25.50;11.07;;;;;;;;;;5053249;28;20207;-74
2020/12/11 02:28:05;;;;;;;28.60;11.73;;;;;;;;;;5049268;28;20273;-75
2020/12/11 02:31:16;;;;;;;26.37;11.23;;;;;;;;;;5053683;28;20215;-74
2020/12/11 02:34:27;;;;;;;31.00;12.57;;;;;;;;;;5047402;28;20716;-76
2020/12/11 02:37:39;;;;;;;34.20;12.43;;;;;;;;;;5053228;28;20211;-75
2020/12/11 02:40:50;;;;;;;26.27;12.57;;;;;;;;;;5059569;28;20281;-75
2020/12/11 02:44:01;;;;;;;27.13;12.47;;;;;;;;;;5053961;28;20223;-75
2020/12/11 02:47:15;;;;;;;27.37;12.10;;;;;;;;;;5049743;28;20207;-75
2020/12/11 02:50:26;;;;;;;31.33;12.60;;;;;;;;;;5051476;28;20341;-75
2020/12/11 02:53:39;;;;;;;29.83;12.57;;;;;;;;;;5052508;28;20234;-75
2020/12/11 02:56:50;;;;;;;27.03;12.77;;;;;;;;;;5053490;28;20208;-75
2020/12/11 03:00:01;;;;;;;35.03;12.73;;;;;;;;;;5052493;28;20357;-73
2020/12/11 03:03:12;;;;;;;28.90;11.23;;;;;;;;;;5046503;28;20654;-74
2020/12/11 03:06:27;;;;;;;26.33;11.53;;;;;;;;;;5050785;28;20230;-74
2020/12/11 03:09:39;;;;;;;21.87;9.87;;;;;;;;;;5047047;28;20203;-75
2020/12/11 03:12:50;;;;;;;25.43;11.60;;;;;;;;;;5048554;28;20227;-74
2020/12/11 03:16:00;;;;;;;23.63;9.47;;;;;;;;;;5048986;28;20595;-75
2020/12/11 03:19:12;;;;;;;23.93;9.63;;;;;;;;;;5041092;28;20273;-75
2020/12/11 03:22:23;;;;;;;25.83;10.80;;;;;;;;;;5050883;28;20212;-75
2020/12/11 03:25:35;;;;;;;23.77;10.17;;;;;;;;;;5053484;28;20249;-74
2020/12/11 03:28:51;;;;;;;24.93;10.60;;;;;;;;;;5052382;28;20298;-75
2020/12/11 03:32:02;;;;;;;20.67;9.43;;;;;;;;;;5046330;28;20215;-74
2020/12/11 03:35:13;;;;;;;26.33;10.10;;;;;;;;;;5046214;28;20242;-74
2020/12/11 03:38:25;;;;;;;22.90;9.40;;;;;;;;;;5077327;28;20211;-73
2020/12/11 03:41:37;;;;;;;23.30;10.03;;;;;;;;;;5072360;28;20215;-73
2020/12/11 03:44:48;;;;;;;26.93;10.40;;;;;;;;;;5060080;28;20287;-76
2020/12/11 03:47:59;;;;;;;24.77;10.27;;;;;;;;;;5058972;28;20243;-75
2020/12/11 03:51:15;;;;;;;25.50;10.20;;;;;;;;;;5053355;28;20218;-75
2020/12/11 03:54:27;;;;;;;23.43;10.27;;;;;;;;;;5053187;28;20226;-75
2020/12/11 03:57:39;;;;;;;31.60;11.60;;;;;;;;;;5052366;28;20251;-75
2020/12/11 04:00:50;;;;;;;27.20;10.97;;;;;;;;;;5052284;28;20207;-75
2020/12/11 04:04:01;;;;;;;27.80;11.27;;;;;;;;;;5050308;28;20745;-75
2020/12/11 04:07:12;;;;;;;32.40;11.60;;;;;;;;;;5050113;28;20207;-74
2020/12/11 04:10:23;;;;;;;25.20;10.60;;;;;;;;;;5052408;28;20261;-75
2020/12/11 04:13:35;;;;;;;34.17;12.43;;;;;;;;;;5047786;28;20281;-73
2020/12/11 04:16:49;;;;;;;29.50;12.27;;;;;;;;;;5051521;28;20292;-75
2020/12/11 04:20:01;;;;;;;32.80;12.47;;;;;;;;;;5052953;28;20337;-75
2020/12/11 04:23:12;;;;;;;27.97;11.40;;;;;;;;;;5049568;28;20737;-75
2020/12/11 04:26:23;;;;;;;28.43;11.97;;;;;;;;;;5050829;28;20203;-74
2020/12/11 04:29:35;;;;;;;30.00;12.00;;;;;;;;;;5052297;28;20214;-75
2020/12/11 04:32:46;;;;;;;29.90;11.87;;;;;;;;;;5056383;28;20227;-74
2020/12/11 04:35:57;;;;;;;32.27;11.97;;;;;;;;;;5053771;28;20226;-74
2020/12/11 04:39:07;;;;;;;30.50;11.97;;;;;;;;;;5048038;28;20207;-74
2020/12/11 04:42:19;;;;;;;31.33;12.27;;;;;;;;;;5050831;28;20206;-74
2020/12/11 04:45:32;;;;;;;29.03;12.63;;;;;;;;;;5046747;28;20239;-75
2020/12/11 04:48:43;;;;;;;30.10;12.80;;;;;;;;;;5050923;28;20686;-74
2020/12/11 04:51:55;;;;;;;34.80;13.00;;;;;;;;;;5050727;28;20571;-74
2020/12/11 04:55:06;;;;;;;35.77;12.73;;;;;;;;;;5050717;28;20755;-75
2020/12/11 04:58:17;;;;;;;32.17;12.50;;;;;;;;;;5051097;28;20291;-74
2020/12/11 05:01:31;;;;;;;38.87;13.73;;;;;;;;;;5050203;28;20206;-74
2020/12/11 05:04:42;;;;;;;37.57;13.83;;;;;;;;;;5050078;28;20234;-74
2020/12/11 05:07:53;;;;;;;38.30;13.43;;;;;;;;;;5047063;28;20246;-74
2020/12/11 05:11:04;;;;;;;32.90;13.10;;;;;;;;;;5050834;28;20218;-74
2020/12/11 05:14:22;;;;;;;36.20;13.57;;;;;;;;;;5049893;28;20254;-75
2020/12/11 05:17:34;;;;;;;35.73;14.33;;;;;;;;;;5058916;28;20215;-74
2020/12/11 05:20:46;;;;;;;36.40;14.37;;;;;;;;;;5050636;28;20246;-74
2020/12/11 05:23:58;;;;;;;38.40;13.50;;;;;;;;;;5065736;28;20234;-72
2020/12/11 05:27:24;;;;;;;35.27;13.63;;;;;;;;;;5074506;28;20207;-74
2020/12/11 05:30:36;;;;;;;34.97;13.30;;;;;;;;;;5053155;28;20211;-74
2020/12/11 05:34:04;;;;;;;40.53;14.63;;;;;;;;;;5047400;28;20284;-75
2020/12/11 05:37:16;;;;;;;38.63;14.23;;;;;;;;;;5050108;28;20262;-74
2020/12/11 05:40:31;;;;;;;41.07;14.53;;;;;;;;;;5051169;28;20349;-75
2020/12/11 05:43:41;;;;;;;36.23;13.53;;;;;;;;;;5050334;28;20226;-74
2020/12/11 05:46:53;;;;;;;31.03;12.47;;;;;;;;;;5062930;28;20282;-75
2020/12/11 05:50:10;;;;;;;35.43;13.40;;;;;;;;;;5049944;28;20214;-75
2020/12/11 05:53:22;;;;;;;37.53;14.17;;;;;;;;;;5047684;28;20231;-74
2020/12/11 05:56:33;;;;;;;42.80;15.27;;;;;;;;;;5046418;28;20714;-75
2020/12/11 05:59:45;;;;;;;37.93;14.70;;;;;;;;;;5049877;28;20230;-75
2020/12/11 06:02:56;;;;;;;38.83;13.53;;;;;;;;;;5057013;28;20710;-75
2020/12/11 06:06:09;;;;;;;40.00;13.63;;;;;;;;;;5049938;28;20786;-74
2020/12/11 06:09:21;;;;;;;35.27;12.03;;;;;;;;;;5050131;28;20211;-74
2020/12/11 06:12:33;;;;;;;39.67;13.47;;;;;;;;;;5054251;28;20552;-74
2020/12/11 06:15:46;;;;;;;36.23;12.80;;;;;;;;;;5054143;28;20299;-74
2020/12/11 06:19:01;;;;;;;35.03;12.47;;;;;;;;;;5053391;28;20215;-74
2020/12/11 06:22:13;;;;;;;30.53;11.57;;;;;;;;;;5054391;28;20219;-74
2020/12/11 06:25:28;;;;;;;33.60;10.23;;;;;;;;;;5047519;28;20227;-74
2020/12/11 06:28:40;;;;;;;33.27;11.93;;;;;;;;;;5050829;28;20207;-74
2020/12/11 06:31:50;;;;;;;29.57;10.67;;;;;;;;;;5058892;28;20202;-74
2020/12/11 06:35:20;;;;;;;30.60;11.97;;;;;;;;;;5049456;28;20215;-73
2020/12/11 06:38:40;;;;;;;36.60;13.00;;;;;;;;;;5068824;28;20237;-73
2020/12/11 06:41:52;;;;;;;32.17;11.63;;;;;;;;;;5062461;28;20207;-73
2020/12/11 06:45:14;;;;;;;34.20;12.17;;;;;;;;;;5062788;28;20287;-74
2020/12/11 06:48:25;;;;;;;30.20;11.40;;;;;;;;;;5051547;28;20215;-74
2020/12/11 06:51:36;;;;;;;27.30;10.40;;;;;;;;;;5049140;28;20292;-73
2020/12/11 06:54:51;;;;;;;30.87;11.63;;;;;;;;;;5047654;28;20747;-72
2020/12/11 06:58:03;;;;;;;27.63;9.80;;;;;;;;;;5047597;28;20258;-74
2020/12/11 07:01:15;;;;;;;23.73;8.93;;;;;;;;;;5051755;28;20234;-74
2020/12/11 07:04:37;;;;;;;27.00;9.63;;;;;;;;;;5053033;28;20243;-75
2020/12/11 07:07:49;;;;;;;27.80;10.93;;;;;;;;;;5046557;28;20238;-74
2020/12/11 07:11:04;;;;;;;33.07;10.80;;;;;;;;;;5045807;28;20211;-75
2020/12/11 07:14:15;;;;;;;31.37;11.60;;;;;;;;;;5047527;28;20251;-74
2020/12/11 07:17:27;;;;;;;33.77;10.50;;;;;;;;;;5047145;28;20199;-75
2020/12/11 07:20:38;;;;;;;28.13;9.87;;;;;;;;;;5050676;28;20203;-75
2020/12/11 07:23:49;;;;;;;30.70;10.07;;;;;;;;;;5049373;28;20250;-75
2020/12/11 07:27:02;;;;;;;27.20;10.40;;;;;;;;;;5048958;28;20207;-74
2020/12/11 07:30:18;;;;;;;30.73;10.43;;;;;;;;;;5053263;28;20222;-74
2020/12/11 07:33:35;;;;;;;37.60;11.83;;;;;;;;;;5048335;28;20626;-74
2020/12/11 07:36:46;;;;;;;31.33;10.97;;;;;;;;;;5044438;28;20312;-74
2020/12/11 07:40:02;;;;;;;27.97;9.83;;;;;;;;;;5052628;28;20244;-75
2020/12/11 07:43:14;;;;;;;29.70;10.73;;;;;;;;;;5048246;28;20646;-75
2020/12/11 07:46:24;;;;;;;32.97;11.53;;;;;;;;;;5050535;28;20192;-74
2020/12/11 07:49:37;;;;;;;33.77;11.27;;;;;;;;;;5052341;28;20210;-75
2020/12/11 07:52:48;;;;;;;39.63;13.23;;;;;;;;;;5051106;28;20265;-75
2020/12/11 07:56:00;;;;;;;34.83;12.07;;;;;;;;;;5050516;28;20215;-74
2020/12/11 07:59:12;;;;;;;33.93;10.87;;;;;;;;;;5053627;28;20246;-74
2020/12/11 08:02:24;;;;;;;30.37;11.30;;;;;;;;;;5057751;28;20238;-75
2020/12/11 08:05:39;;;;;;;38.30;12.60;;;;;;;;;;5050312;28;20230;-75
2020/12/11 08:08:50;;;;;;;37.47;11.90;;;;;;;;;;5056689;28;20211;-74
2020/12/11 08:12:12;;;;;;;34.07;11.67;;;;;;;;;;5050194;28;20230;-75
2020/12/11 08:15:37;;;;;;;39.77;13.60;;;;;;;;;;5047707;28;20289;-75
2020/12/11 08:18:59;;;;;;;37.33;13.60;;;;;;;;;;5048196;28;20202;-75
2020/12/11 08:22:16;;;;;;;42.07;14.03;;;;;;;;;;5041956;28;20214;-74
2020/12/11 08:25:31;;;;;;;40.67;14.33;;;;;;;;;;5052098;28;20211;-75
2020/12/11 08:28:44;;;;;;;48.70;18.97;;;;;;;;;;5051299;28;20195;-73
2020/12/11 08:31:57;;;;;;;45.70;16.47;;;;;;;;;;5041083;28;20699;-73
2020/12/11 08:35:15;;;;;;;40.00;16.07;;;;;;;;;;5042663;28;20586;-73
2020/12/11 08:38:26;;;;;;;47.03;18.23;;;;;;;;;;5050997;28;20238;-73
2020/12/11 08:41:40;;;;;;;48.07;18.17;;;;;;;;;;5051081;28;20306;-74
2020/12/11 08:45:17;;;;;;;54.30;19.63;;;;;;;;;;5051146;28;20199;-73
2020/12/11 08:48:37;;;;;;;53.60;19.77;;;;;;;;;;5057214;28;20241;-74
2020/12/11 08:51:48;;;;;;;68.20;22.10;;;;;;;;;;5046773;28;20377;-73
2020/12/11 08:55:03;;;;;;;62.40;21.77;;;;;;;;;;5053012;28;20570;-74
2020/12/11 08:58:15;;;;;;;71.13;24.63;;;;;;;;;;5055845;28;20203;-73
2020/12/11 09:01:28;;;;;;;69.23;24.20;;;;;;;;;;5064595;28;20210;-71
2020/12/11 09:04:41;;;;;;;67.30;22.37;;;;;;;;;;5065441;28;20335;-74
2020/12/11 09:07:52;;;;;;;72.30;24.93;;;;;;;;;;5048449;28;20198;-73
2020/12/11 09:11:04;;;;;;;66.33;23.37;;;;;;;;;;5049509;28;20202;-73
2020/12/11 09:14:15;;;;;;;61.13;21.77;;;;;;;;;;5047833;28;20238;-73
2020/12/11 09:17:26;;;;;;;69.33;23.47;;;;;;;;;;5047784;28;20602;-74
2020/12/11 09:20:40;;;;;;;64.37;20.60;;;;;;;;;;5051398;28;20578;-73
2020/12/11 09:23:51;;;;;;;64.70;21.63;;;;;;;;;;5049251;28;20230;-73
2020/12/11 09:27:02;;;;;;;60.53;21.07;;;;;;;;;;5042746;28;20215;-73
2020/12/11 09:30:21;;;;;;;63.13;21.37;;;;;;;;;;5048968;28;20288;-74
2020/12/11 09:33:38;;;;;;;57.77;19.80;;;;;;;;;;5040294;28;20235;-73
2020/12/11 09:36:50;;;;;;;44.37;17.57;;;;;;;;;;5043661;28;20299;-74
2020/12/11 09:40:02;;;;;;;45.53;17.80;;;;;;;;;;5050810;28;20211;-73
2020/12/11 09:46:58;;;;;;;46.53;16.23;;;;;;;;;;5055032;28;20630;-73
2020/12/11 09:50:25;;;;;;;46.57;16.10;;;;;;;;;;5054351;28;20218;-73
2020/12/11 09:57:14;;;;;;;36.60;13.70;;;;;;;;;;5055450;28;20248;-72
2020/12/11 10:00:25;;;;;;;37.53;13.00;;;;;;;;;;5054573;28;20268;-74
2020/12/11 10:03:39;;;;;;;36.60;13.57;;;;;;;;;;5049137;28;20283;-73
2020/12/11 10:06:50;;;;;;;36.13;13.30;;;;;;;;;;5052394;28;20268;-73
2020/12/11 10:10:01;;;;;;;33.13;12.77;;;;;;;;;;5047372;28;20334;-73
2020/12/11 10:13:12;;;;;;;39.10;13.13;;;;;;;;;;5052298;28;20288;-73
2020/12/11 10:16:24;;;;;;;35.83;13.77;;;;;;;;;;5052534;28;20304;-73
2020/12/11 10:19:35;;;;;;;35.63;13.27;;;;;;;;;;5051863;28;20685;-73
2020/12/11 10:22:47;;;;;;;35.20;13.03;;;;;;;;;;5049710;28;20349;-72
2020/12/11 10:26:02;;;;;;;34.07;12.87;;;;;;;;;;5043090;28;20215;-73
2020/12/11 10:29:12;;;;;;;35.53;13.67;;;;;;;;;;5059125;28;20206;-74
2020/12/11 10:32:24;;;;;;;33.87;12.97;;;;;;;;;;5057764;28;20215;-73
2020/12/11 10:35:34;;;;;;;37.83;14.43;;;;;;;;;;5048975;28;20268;-74
2020/12/11 10:38:46;;;;;;;37.43;13.83;;;;;;;;;;5053679;28;20227;-74
2020/12/11 10:42:01;;;;;;;29.80;12.90;;;;;;;;;;5050016;28;20258;-74
2020/12/11 10:45:12;;;;;;;34.00;13.33;;;;;;;;;;5047898;28;20211;-74
2020/12/11 10:48:24;;;;;;;31.97;13.43;;;;;;;;;;5048762;28;20269;-73
2020/12/11 10:51:39;;;;;;;31.53;11.80;;;;;;;;;;5058160;28;20219;-72
2020/12/11 10:54:57;;;;;;;35.43;12.70;;;;;;;;;;5063295;28;20270;-74
2020/12/11 10:58:09;;;;;;;29.20;11.80;;;;;;;;;;5065307;28;20272;-71
2020/12/11 11:01:19;;;;;;;30.17;11.60;;;;;;;;;;5052462;28;20202;-71
2020/12/11 11:04:31;;;;;;;27.97;11.80;;;;;;;;;;5053709;28;20318;-72
2020/12/11 11:07:42;;;;;;;31.87;11.63;;;;;;;;;;5050154;28;20258;-73
2020/12/11 11:10:54;;;;;;;28.20;12.27;;;;;;;;;;5052729;28;20242;-73
2020/12/11 11:14:22;;;;;;;29.67;12.07;;;;;;;;;;5051209;28;20416;-73
2020/12/11 11:24:49;;;;;;;26.87;11.10;;;;;;;;;;5048452;28;20258;-72
2020/12/11 11:28:01;;;;;;;29.80;10.60;;;;;;;;;;5059198;28;20349;-72
2020/12/11 11:31:13;;;;;;;35.37;12.43;;;;;;;;;;5044342;28;20584;-72
2020/12/11 11:34:23;;;;;;;32.80;11.23;;;;;;;;;;5048305;28;20226;-71
2020/12/11 11:37:35;;;;;;;30.17;11.50;;;;;;;;;;5052943;28;20218;-72
2020/12/11 11:40:48;;;;;;;27.27;10.83;;;;;;;;;;5046584;28;20252;-71
2020/12/11 11:44:16;;;;;;;27.17;11.20;;;;;;;;;;5048503;28;21074;-72
2020/12/11 11:47:28;;;;;;;28.53;11.67;;;;;;;;;;5052346;28;20257;-72
2020/12/11 11:50:52;;;;;;;33.20;11.53;;;;;;;;;;5050802;28;20223;-73
2020/12/11 11:54:04;;;;;;;29.93;11.63;;;;;;;;;;5050341;28;20689;-72
2020/12/11 11:57:15;;;;;;;27.70;10.50;;;;;;;;;;5046975;28;20246;-72
2020/12/11 12:00:26;;;;;;;23.47;10.50;;;;;;;;;;5055286;28;20326;-72
2020/12/11 12:03:37;;;;;;;25.60;10.33;;;;;;;;;;5050195;28;20258;-73
2020/12/11 12:06:50;;;;;;;26.53;10.40;;;;;;;;;;5035491;28;20210;-72
2020/12/11 12:10:01;;;;;;;24.80;9.90;;;;;;;;;;5049640;28;20237;-72
2020/12/11 12:13:13;;;;;;;25.37;10.57;;;;;;;;;;5049000;28;20250;-73
2020/12/11 12:16:23;;;;;;;24.93;9.67;;;;;;;;;;5049640;28;20227;-73
2020/12/11 12:19:41;;;;;;;22.70;8.97;;;;;;;;;;5050036;28;20305;-73
2020/12/11 12:29:46;;;;;;;25.87;9.77;;;;;;;;;;5048007;28;20685;-73
2020/12/11 12:43:39;;;;;;;25.30;9.47;;;;;;;;;;5066744;28;20230;-73
2020/12/11 12:46:50;;;;;;;25.60;9.57;;;;;;;;;;5057893;28;20195;-72
2020/12/11 12:50:01;;;;;;;25.60;9.37;;;;;;;;;;5052774;28;20215;-72
2020/12/11 12:53:14;;;;;;;26.83;9.77;;;;;;;;;;5050117;28;20258;-73
2020/12/11 12:56:39;;;;;;;21.60;8.87;;;;;;;;;;5044801;28;20253;-73
2020/12/11 12:59:54;;;;;;;21.60;8.30;;;;;;;;;;5032613;28;20247;-73
2020/12/11 13:06:23;;;;;;;28.17;9.20;;;;;;;;;;5049128;28;20203;-73
2020/12/11 13:09:36;;;;;;;26.27;9.83;;;;;;;;;;5055973;28;20249;-79
2020/12/11 13:12:48;;;;;;;22.43;9.30;;;;;;;;;;5044194;28;20235;-80
2020/12/11 13:15:59;;;;;;;22.97;9.07;;;;;;;;;;5058038;28;20337;-79
2020/12/11 13:19:13;;;;;;;27.60;12.23;;;;;;;;;;5054772;28;20349;-80
2020/12/11 13:22:48;;;;;;;27.73;10.27;;;;;;;;;;5048977;28;20676;-79
2020/12/11 13:29:33;;;;;;;21.83;8.97;;;;;;;;;;5065416;28;20238;-77
2020/12/11 13:32:44;;;;;;;25.70;9.57;;;;;;;;;;5055621;28;20349;-79
2020/12/11 13:35:55;;;;;;;22.57;9.30;;;;;;;;;;5048645;28;20221;-80
2020/12/11 13:39:08;;;;;;;24.80;9.60;;;;;;;;;;5054935;28;20210;-78
2020/12/11 13:42:21;;;;;;;19.87;9.07;;;;;;;;;;5055284;28;20195;-78
2020/12/11 13:45:33;;;;;;;17.63;8.27;;;;;;;;;;5055612;28;20269;-78
2020/12/11 13:48:44;;;;;;;22.03;8.67;;;;;;;;;;5056251;28;20230;-79
2020/12/11 13:51:58;;;;;;;22.50;8.37;;;;;;;;;;5042009;28;20218;-77
2020/12/11 13:55:10;;;;;;;24.37;9.60;;;;;;;;;;5044971;28;20378;-77
2020/12/11 13:58:25;;;;;;;19.77;8.90;;;;;;;;;;5045328;28;20261;-78
2020/12/11 14:01:36;;;;;;;21.30;8.60;;;;;;;;;;5052018;28;20216;-78
2020/12/11 14:04:48;;;;;;;17.83;7.90;;;;;;;;;;5056900;28;20341;-78
2020/12/11 14:07:59;;;;;;;21.30;8.50;;;;;;;;;;5054532;28;20211;-76
2020/12/11 14:11:12;;;;;;;16.83;7.87;;;;;;;;;;5054652;28;20223;-78
2020/12/11 14:14:24;;;;;;;17.57;8.60;;;;;;;;;;5050434;28;20615;-77
2020/12/11 14:21:20;;;;;;;17.60;8.30;;;;;;;;;;5041710;28;20187;-77
2020/12/11 14:24:32;;;;;;;18.13;8.27;;;;;;;;;;5068755;28;20336;-77
2020/12/11 14:27:43;;;;;;;18.10;7.50;;;;;;;;;;5059990;28;20217;-75
2020/12/11 14:30:56;;;;;;;19.07;8.77;;;;;;;;;;5063531;28;20266;-77
2020/12/11 14:34:09;;;;;;;15.90;7.03;;;;;;;;;;5065395;28;20326;-76
2020/12/11 14:37:20;;;;;;;18.37;7.50;;;;;;;;;;5065868;28;20697;-79
2020/12/11 14:40:32;;;;;;;15.20;6.97;;;;;;;;;;5067130;28;20252;-79
2020/12/11 14:43:42;;;;;;;15.17;6.47;;;;;;;;;;5062549;28;20245;-76
2020/12/11 14:46:55;;;;;;;15.00;7.23;;;;;;;;;;5062667;28;20346;-76
2020/12/11 14:50:08;;;;;;;13.50;6.40;;;;;;;;;;5062714;28;20219;-76
2020/12/11 14:53:19;;;;;;;18.83;6.67;;;;;;;;;;5048498;28;20234;-76
2020/12/11 14:56:30;;;;;;;20.50;8.93;;;;;;;;;;5062912;28;20245;-76
2020/12/11 14:59:41;;;;;;;32.67;13.77;;;;;;;;;;5062554;28;20220;-76
2020/12/11 15:02:53;;;;;;;29.97;14.93;;;;;;;;;;5062879;28;20339;-77
2020/12/11 15:06:08;;;;;;;18.27;9.47;;;;;;;;;;5069842;28;20342;-77
2020/12/11 15:09:20;;;;;;;17.20;7.80;;;;;;;;;;5079345;28;20210;-76
2020/12/11 15:12:31;;;;;;;20.80;9.90;;;;;;;;;;5054232;28;20206;-77
2020/12/11 15:15:42;;;;;;;16.77;7.10;;;;;;;;;;5059041;28;20330;-77
2020/12/11 15:18:53;;;;;;;13.83;6.83;;;;;;;;;;5066954;28;20207;-77
2020/12/11 15:22:06;;;;;;;16.13;7.93;;;;;;;;;;5066594;28;20598;-77
2020/12/11 15:25:20;;;;;;;16.97;6.97;;;;;;;;;;5065838;28;20281;-77
2020/12/11 15:28:32;;;;;;;15.00;6.37;;;;;;;;;;5068212;28;20254;-77
2020/12/11 15:31:43;;;;;;;273.83;79.37;;;;;;;;;;5063939;28;20218;-77
2020/12/11 15:34:56;;;;;;;295.33;82.93;;;;;;;;;;5062370;28;20287;-78
2020/12/11 15:38:07;;;;;;;159.47;51.77;;;;;;;;;;5062874;28;20325;-76
2020/12/11 15:41:18;;;;;;;28.77;10.83;;;;;;;;;;5051426;28;20308;-77
2020/12/11 15:44:29;;;;;;;48.10;26.73;;;;;;;;;;5061818;28;20231;-75
2020/12/11 15:47:41;;;;;;;22.00;13.37;;;;;;;;;;5076027;28;20211;-76
2020/12/11 15:50:52;;;;;;;20.70;9.83;;;;;;;;;;5044264;28;20659;-77
2020/12/11 15:54:04;;;;;;;19.70;7.13;;;;;;;;;;5055883;28;20226;-78
2020/12/11 15:57:14;;;;;;;24.40;11.07;;;;;;;;;;5062811;28;20277;-77
2020/12/11 16:00:29;;;;;;;14.80;7.40;;;;;;;;;;5058192;28;20261;-77
2020/12/11 16:03:40;;;;;;;16.90;7.20;;;;;;;;;;5057255;28;20261;-77
2020/12/11 16:06:54;;;;;;;21.27;8.60;;;;;;;;;;5058225;28;20267;-77
2020/12/11 16:10:08;;;;;;;22.93;9.20;;;;;;;;;;5060096;28;20271;-75
2020/12/11 16:13:18;;;;;;;23.13;9.43;;;;;;;;;;5062542;28;20437;-76
2020/12/11 16:16:30;;;;;;;22.13;9.77;;;;;;;;;;5062335;28;20688;-76
2020/12/11 16:19:42;;;;;;;20.03;8.70;;;;;;;;;;5054613;28;20258;-77
2020/12/11 16:22:54;;;;;;;24.40;9.47;;;;;;;;;;5068303;28;20384;-76
2020/12/11 16:26:05;;;;;;;16.73;8.30;;;;;;;;;;5082993;28;20202;-77
2020/12/11 16:29:16;;;;;;;17.00;8.27;;;;;;;;;;5080728;28;20249;-77
2020/12/11 16:32:32;;;;;;;19.63;8.40;;;;;;;;;;5069231;28;20203;-77
2020/12/11 16:35:44;;;;;;;40.47;18.53;;;;;;;;;;5058639;28;20207;-78
2020/12/11 16:38:56;;;;;;;17.67;9.13;;;;;;;;;;5054977;28;20199;-78
2020/12/11 16:42:07;;;;;;;18.03;7.97;;;;;;;;;;5056248;28;20207;-77
2020/12/11 16:45:20;;;;;;;18.27;8.07;;;;;;;;;;5057009;28;20326;-75
2020/12/11 16:48:33;;;;;;;17.27;7.60;;;;;;;;;;5037716;28;20556;-74
2020/12/11 16:51:44;;;;;;;23.10;9.40;;;;;;;;;;5041606;28;20191;-75
2020/12/11 16:54:56;;;;;;;22.47;9.07;;;;;;;;;;5053519;28;20215;-77
2020/12/11 16:58:07;;;;;;;18.33;8.33;;;;;;;;;;5036231;28;20247;-77
2020/12/11 17:01:22;;;;;;;35.13;13.40;;;;;;;;;;5036105;28;20299;-76
2020/12/11 17:08:15;;;;;;;19.60;9.27;;;;;;;;;;5055942;28;20206;-76
2020/12/11 17:11:27;;;;;;;24.97;9.80;;;;;;;;;;5056815;28;20246;-76
2020/12/11 17:14:39;;;;;;;23.90;10.23;;;;;;;;;;5054759;28;20238;-76
2020/12/11 17:17:50;;;;;;;31.17;12.53;;;;;;;;;;5055687;28;20356;-76
2020/12/11 17:21:02;;;;;;;27.47;12.23;;;;;;;;;;5054910;28;20214;-76
2020/12/11 17:24:15;;;;;;;24.23;10.80;;;;;;;;;;5054805;28;20718;-75
2020/12/11 17:27:28;;;;;;;26.83;11.47;;;;;;;;;;5058104;28;20217;-76
2020/12/11 17:30:43;;;;;;;23.50;10.03;;;;;;;;;;5053783;28;20233;-77
2020/12/11 17:33:59;;;;;;;27.60;12.00;;;;;;;;;;5054889;28;20284;-78
2020/12/11 17:37:18;;;;;;;23.97;10.47;;;;;;;;;;5053968;28;20220;-76
2020/12/11 17:40:44;;;;;;;27.60;12.03;;;;;;;;;;5045670;28;20570;-75
2020/12/11 17:44:02;;;;;;;26.57;10.80;;;;;;;;;;5052745;28;20768;-75
2020/12/11 17:47:14;;;;;;;123.80;42.93;;;;;;;;;;5053559;28;20219;-76
2020/12/11 17:50:25;;;;;;;145.97;56.03;;;;;;;;;;5052018;28;20203;-77
2020/12/11 17:53:41;;;;;;;325.67;118.53;;;;;;;;;;5055294;28;20276;-78
2020/12/11 17:56:52;;;;;;;146.27;57.10;;;;;;;;;;5049713;28;20231;-76
2020/12/11 18:00:04;;;;;;;100.00;45.17;;;;;;;;;;5055996;28;20289;-77
2020/12/11 18:03:19;;;;;;;48.77;24.63;;;;;;;;;;5052580;28;20334;-77
2020/12/11 18:06:30;;;;;;;28.37;14.73;;;;;;;;;;5055200;28;20306;-76
2020/12/11 18:09:42;;;;;;;36.60;14.50;;;;;;;;;;5056959;28;20226;-77
2020/12/11 18:12:55;;;;;;;25.07;10.77;;;;;;;;;;5060250;28;20306;-80
2020/12/11 18:16:10;;;;;;;26.77;12.13;;;;;;;;;;5066680;28;20191;-76
2020/12/11 18:19:24;;;;;;;32.83;13.53;;;;;;;;;;5072244;28;20222;-76
2020/12/11 18:22:38;;;;;;;29.90;12.17;;;;;;;;;;5079579;28;20203;-78
2020/12/11 18:25:52;;;;;;;28.37;11.90;;;;;;;;;;5070867;28;20206;-76
2020/12/11 18:29:04;;;;;;;27.93;12.30;;;;;;;;;;5056407;28;20279;-77
2020/12/11 18:32:18;;;;;;;23.07;11.07;;;;;;;;;;5044704;28;20238;-77
2020/12/11 18:35:28;;;;;;;23.57;11.17;;;;;;;;;;5050609;28;20232;-77
2020/12/11 18:38:40;;;;;;;20.07;9.87;;;;;;;;;;5061036;28;20215;-76
2020/12/11 18:41:53;;;;;;;22.80;10.00;;;;;;;;;;5073460;28;20202;-78
2020/12/11 18:45:05;;;;;;;29.70;12.83;;;;;;;;;;5072159;28;20210;-77
2020/12/11 18:48:18;;;;;;;30.67;13.23;;;;;;;;;;5071550;28;20766;-73
2020/12/11 18:51:29;;;;;;;26.60;11.67;;;;;;;;;;5063286;28;20210;-75
2020/12/11 18:54:40;;;;;;;31.90;13.00;;;;;;;;;;5063829;28;20307;-76
2020/12/11 18:57:51;;;;;;;23.63;10.77;;;;;;;;;;5062885;28;20316;-75
2020/12/11 19:01:02;;;;;;;27.83;11.13;;;;;;;;;;5077073;28;20269;-76
2020/12/11 19:04:14;;;;;;;26.57;11.97;;;;;;;;;;5061722;28;20285;-76
2020/12/11 19:07:25;;;;;;;25.90;11.53;;;;;;;;;;5064264;28;20333;-76
2020/12/11 19:10:37;;;;;;;25.93;11.43;;;;;;;;;;5061058;28;20599;-76
2020/12/11 19:13:48;;;;;;;24.73;10.67;;;;;;;;;;5064565;28;20233;-76
2020/12/11 19:16:59;;;;;;;24.03;10.33;;;;;;;;;;5057550;28;20252;-76
2020/12/11 19:20:11;;;;;;;23.77;10.47;;;;;;;;;;5056804;28;20270;-76
2020/12/11 19:23:24;;;;;;;23.30;10.07;;;;;;;;;;5064135;28;20230;-77
2020/12/11 19:26:36;;;;;;;22.90;10.47;;;;;;;;;;5060085;28;20350;-76
2020/12/11 19:29:47;;;;;;;26.30;12.57;;;;;;;;;;5070815;28;20306;-76